Time;durP1;ratioP1;P1;durP2;ratioP2;P2;SDS_P1;SDS_P2;PMS_P1;PMS_P2;Temp;Humidity;BMP_temperature;BMP_pressure;BME280_temperature;BME280_humidity;BME280_pressure;Samples;Min_cycle;Max_cycle;Signal;HPM_P1;HPM_P2
2023/02/23 00:00:07;;;;;;;;;;;;;;;;;;6124899;23;19909;-78
2023/02/23 00:02:36;;;;;;;;;;;;;;;;;;6126643;23;19916;-79
2023/02/23 00:05:03;;;;;;;;;;;;;;;;;;6126186;23;19916;-79
2023/02/23 00:07:28;;;;;;;;;;;;;;;;;;6126449;23;19912;-79
2023/02/23 00:09:55;;;;;;;;;;;;;;;;;;6126703;23;20342;-79
2023/02/23 00:12:22;;;;;;;;;;;;;;;;;;6126376;23;19909;-80
2023/02/23 00:14:48;;;;;;;;;;;;;;;;;;6126170;23;19909;-79
2023/02/23 00:17:16;;;;;;;;;;;;;;;;;;6126296;23;19917;-78
2023/02/23 00:19:42;;;;;;;;;;;;;;;;;;6126130;23;19912;-79
2023/02/23 00:22:07;;;;;;;;;;;;;;;;;;6126140;23;19963;-79
2023/02/23 00:24:35;;;;;;;;;;;;;;;;;;6126378;23;19912;-79
2023/02/23 00:27:05;;;;;;;;;;;;;;;;;;6126252;23;19909;-78
2023/02/23 00:29:37;;;;;;;;;;;;;;;;;;6149556;23;19909;-77
2023/02/23 00:32:03;;;;;;;;;;;;;;;;;;6149731;23;19913;-78
2023/02/23 00:34:28;;;;;;;;;;;;;;;;;;6125230;23;20343;-79
2023/02/23 00:36:54;;;;;;;;;;;;;;;;;;6125331;23;20334;-79
2023/02/23 00:41:45;;;;;;;;;;;;;;;;;;6124527;23;19969;-77
2023/02/23 00:44:10;;;;;;;;;;;;;;;;;;6126275;23;19909;-79
2023/02/23 00:46:36;;;;;;;;;;;;;;;;;;6126232;23;19979;-78
2023/02/23 00:49:03;;;;;;;;;;;;;;;;;;6124794;23;19984;-78
2023/02/23 00:51:31;;;;;;;;;;;;;;;;;;6124649;23;19909;-78
2023/02/23 00:53:57;;;;;;;;;;;;;;;;;;6126114;23;19933;-79
2023/02/23 00:56:22;;;;;;;;;;;;;;;;;;6124574;23;19905;-79
2023/02/23 00:58:48;;;;;;;;;;;;;;;;;;6124775;23;19956;-80
2023/02/23 01:01:14;;;;;;;;;;;;;;;;;;6124496;23;19909;-78
2023/02/23 01:03:41;;;;;;;;;;;;;;;;;;6124576;23;19909;-78
2023/02/23 01:06:08;;;;;;;;;;;;;;;;;;6100083;23;19941;-80
2023/02/23 01:08:33;;;;;;;;;;;;;;;;;;6100113;23;19964;-78
2023/02/23 01:10:59;;;;;;;;;;;;;;;;;;6125958;23;19905;-78
2023/02/23 01:13:25;;;;;;;;;;;;;;;;;;6124462;23;19913;-79
2023/02/23 01:15:51;;;;;;;;;;;;;;;;;;6125669;23;19916;-78
2023/02/23 01:18:16;;;;;;;;;;;;;;;;;;6125662;23;19909;-78
2023/02/23 01:20:41;;;;;;;;;;;;;;;;;;6124321;23;19920;-78
2023/02/23 01:23:07;;;;;;;;;;;;;;;;;;6124462;23;19908;-80
2023/02/23 01:25:32;;;;;;;;;;;;;;;;;;6124187;23;19936;-80
2023/02/23 01:27:58;;;;;;;;;;;;;;;;;;6126012;23;19965;-77
2023/02/23 01:30:24;;;;;;;;;;;;;;;;;;6125888;23;19913;-79
2023/02/23 01:32:51;;;;;;;;;;;;;;;;;;6124595;23;20361;-79
2023/02/23 01:35:16;;;;;;;;;;;;;;;;;;6126148;23;19936;-79
2023/02/23 01:37:41;;;;;;;;;;;;;;;;;;6125934;23;20333;-79
2023/02/23 01:40:12;;;;;;;;;;;;;;;;;;6124203;23;19909;-80
2023/02/23 01:42:38;;;;;;;;;;;;;;;;;;6125879;23;19944;-78
2023/02/23 01:45:03;;;;;;;;;;;;;;;;;;6125740;23;20414;-78
2023/02/23 01:47:28;;;;;;;;;;;;;;;;;;6099818;23;19909;-78
2023/02/23 01:49:55;;;;;;;;;;;;;;;;;;6124369;23;19960;-79
2023/02/23 01:52:20;;;;;;;;;;;;;;;;;;6125959;23;19909;-80
2023/02/23 01:54:49;;;;;;;;;;;;;;;;;;6123872;23;19991;-79
2023/02/23 01:57:14;;;;;;;;;;;;;;;;;;6124190;23;19984;-79
2023/02/23 01:59:39;;;;;;;;;;;;;;;;;;6124252;23;19944;-78
2023/02/23 02:02:06;;;;;;;;;;;;;;;;;;6125289;23;19924;-78
2023/02/23 02:04:36;;;;;;;;;;;;;;;;;;6126499;23;20250;-78
2023/02/23 02:07:02;;;;;;;;;;;;;;;;;;6127447;23;19928;-77
2023/02/23 02:09:28;;;;;;;;;;;;;;;;;;6124927;23;19909;-79
2023/02/23 02:11:53;;;;;;;;;;;;;;;;;;6126735;23;19936;-79
2023/02/23 02:14:21;;;;;;;;;;;;;;;;;;6125240;23;19988;-79
2023/02/23 02:16:46;;;;;;;;;;;;;;;;;;6125706;23;19909;-79
2023/02/23 02:19:15;;;;;;;;;;;;;;;;;;6126408;23;20256;-77
2023/02/23 02:21:41;;;;;;;;;;;;;;;;;;6148593;23;19943;-78
2023/02/23 02:24:07;;;;;;;;;;;;;;;;;;6125552;23;19912;-80
2023/02/23 02:26:32;;;;;;;;;;;;;;;;;;6123777;23;20327;-80
2023/02/23 02:28:58;;;;;;;;;;;;;;;;;;6129437;23;19909;-80
2023/02/23 02:31:24;;;;;;;;;;;;;;;;;;6130860;23;19913;-78
2023/02/23 02:33:51;;;;;;;;;;;;;;;;;;6132123;23;19972;-78
2023/02/23 02:36:17;;;;;;;;;;;;;;;;;;6131393;23;19988;-78
2023/02/23 02:38:42;;;;;;;;;;;;;;;;;;6127960;23;20358;-79
2023/02/23 02:41:07;;;;;;;;;;;;;;;;;;6124881;23;19923;-78
2023/02/23 02:43:33;;;;;;;;;;;;;;;;;;6126297;23;19980;-77
2023/02/23 02:45:58;;;;;;;;;;;;;;;;;;6125949;23;19983;-80
2023/02/23 02:48:29;;;;;;;;;;;;;;;;;;6124537;23;19944;-81
2023/02/23 02:50:55;;;;;;;;;;;;;;;;;;6125742;23;19913;-78
2023/02/23 02:53:20;;;;;;;;;;;;;;;;;;6130676;23;19935;-80
2023/02/23 02:55:47;;;;;;;;;;;;;;;;;;6151448;23;19909;-78
2023/02/23 02:58:12;;;;;;;;;;;;;;;;;;6148159;23;19889;-79
2023/02/23 04:19:19;;;;;;;;;;;;;;;;;;6124696;23;20403;-80
2023/02/23 04:21:45;;;;;;;;;;;;;;;;;;6124560;23;19913;-78
2023/02/23 04:24:10;;;;;;;;;;;;;;;;;;6124797;23;19915;-79
2023/02/23 04:26:36;;;;;;;;;;;;;;;;;;6124704;23;20095;-80
2023/02/23 04:29:01;;;;;;;;;;;;;;;;;;6124535;23;20220;-80
2023/02/23 04:31:26;;;;;;;;;;;;;;;;;;6126181;23;19913;-78
2023/02/23 04:33:52;;;;;;;;;;;;;;;;;;6124636;23;19931;-79
2023/02/23 04:36:17;;;;;;;;;;;;;;;;;;6124747;23;19988;-78
2023/02/23 04:38:43;;;;;;;;;;;;;;;;;;6125353;23;20258;-79
2023/02/23 04:41:08;;;;;;;;;;;;;;;;;;6126034;23;20356;-79
2023/02/23 04:43:34;;;;;;;;;;;;;;;;;;6126794;23;19909;-79
2023/02/23 04:45:59;;;;;;;;;;;;;;;;;;6125070;23;19909;-80
2023/02/23 04:48:25;;;;;;;;;;;;;;;;;;6124808;23;19943;-80
2023/02/23 04:50:51;;;;;;;;;;;;;;;;;;6126957;23;19913;-77
2023/02/23 04:53:16;;;;;;;;;;;;;;;;;;6127885;23;20248;-79
2023/02/23 04:55:42;;;;;;;;;;;;;;;;;;6100122;23;19908;-77
2023/02/23 04:58:11;;;;;;;;;;;;;;;;;;6126198;23;20317;-78
2023/02/23 05:00:38;;;;;;;;;;;;;;;;;;6125345;23;20194;-79
2023/02/23 05:03:03;;;;;;;;;;;;;;;;;;6125946;23;19909;-78
2023/02/23 05:05:29;;;;;;;;;;;;;;;;;;6125815;23;20328;-79
2023/02/23 05:07:54;;;;;;;;;;;;;;;;;;6125968;23;19912;-79
2023/02/23 05:10:19;;;;;;;;;;;;;;;;;;6124625;23;19908;-81
2023/02/23 05:12:45;;;;;;;;;;;;;;;;;;6124362;23;20418;-78
2023/02/23 05:15:11;;;;;;;;;;;;;;;;;;6127031;23;19909;-78
2023/02/23 05:17:36;;;;;;;;;;;;;;;;;;6126005;23;19973;-79
2023/02/23 05:20:02;;;;;;;;;;;;;;;;;;6126671;23;19909;-80
2023/02/23 05:22:27;;;;;;;;;;;;;;;;;;6125963;23;19963;-79
2023/02/23 05:24:52;;;;;;;;;;;;;;;;;;6125902;23;20243;-79
2023/02/23 05:27:18;;;;;;;;;;;;;;;;;;6126797;23;20004;-81
2023/02/23 05:29:43;;;;;;;;;;;;;;;;;;6127282;23;19909;-80
2023/02/23 05:32:09;;;;;;;;;;;;;;;;;;6128216;23;19915;-79
2023/02/23 05:34:34;;;;;;;;;;;;;;;;;;6136093;23;19963;-79
2023/02/23 05:36:59;;;;;;;;;;;;;;;;;;6135567;23;19916;-81
2023/02/23 05:39:25;;;;;;;;;;;;;;;;;;6135785;23;19958;-79
2023/02/23 05:41:51;;;;;;;;;;;;;;;;;;6143461;23;20417;-78
2023/02/23 05:44:16;;;;;;;;;;;;;;;;;;6157944;23;19920;-77
2023/02/23 05:46:42;;;;;;;;;;;;;;;;;;6181424;23;19912;-77
2023/02/23 05:49:07;;;;;;;;;;;;;;;;;;6179258;23;19915;-77
2023/02/23 05:51:33;;;;;;;;;;;;;;;;;;6178294;23;19939;-77
2023/02/23 05:53:58;;;;;;;;;;;;;;;;;;6154571;23;19909;-77
2023/02/23 05:56:23;;;;;;;;;;;;;;;;;;6154560;23;19912;-76
2023/02/23 05:58:49;;;;;;;;;;;;;;;;;;6155002;23;19908;-76
2023/02/23 06:01:14;;;;;;;;;;;;;;;;;;6177850;23;20334;-77
2023/02/23 06:03:39;;;;;;;;;;;;;;;;;;6153145;23;20422;-77
2023/02/23 06:06:05;;;;;;;;;;;;;;;;;;6155048;23;19916;-77
2023/02/23 06:08:30;;;;;;;;;;;;;;;;;;6153437;23;19946;-78
2023/02/23 06:10:55;;;;;;;;;;;;;;;;;;6155065;23;20266;-78
2023/02/23 06:13:21;;;;;;;;;;;;;;;;;;6153733;23;19909;-77
2023/02/23 06:15:48;;;;;;;;;;;;;;;;;;6153223;23;19915;-76
2023/02/23 06:18:13;;;;;;;;;;;;;;;;;;6155554;23;19988;-77
2023/02/23 06:20:39;;;;;;;;;;;;;;;;;;6156468;23;19994;-77
2023/02/23 06:23:05;;;;;;;;;;;;;;;;;;6179320;23;19971;-77
2023/02/23 06:25:30;;;;;;;;;;;;;;;;;;6153951;23;19909;-77
2023/02/23 06:27:56;;;;;;;;;;;;;;;;;;6178557;23;19967;-77
2023/02/23 06:30:21;;;;;;;;;;;;;;;;;;6153621;23;19912;-77
2023/02/23 06:32:46;;;;;;;;;;;;;;;;;;6129135;23;19909;-77
2023/02/23 06:35:15;;;;;;;;;;;;;;;;;;6178371;23;19912;-77
2023/02/23 06:37:42;;;;;;;;;;;;;;;;;;6179199;23;20367;-78
2023/02/23 06:40:07;;;;;;;;;;;;;;;;;;6179442;23;19912;-77
2023/02/23 06:42:34;;;;;;;;;;;;;;;;;;6155797;23;19995;-76
2023/02/23 06:45:00;;;;;;;;;;;;;;;;;;6156011;23;20331;-78
2023/02/23 06:47:25;;;;;;;;;;;;;;;;;;6156171;23;19988;-78
2023/02/23 06:49:50;;;;;;;;;;;;;;;;;;6156867;23;19966;-78
2023/02/23 06:52:16;;;;;;;;;;;;;;;;;;6180177;23;19915;-77
2023/02/23 06:54:41;;;;;;;;;;;;;;;;;;6155231;23;19908;-78
2023/02/23 06:57:07;;;;;;;;;;;;;;;;;;6157390;23;20361;-78
2023/02/23 06:59:32;;;;;;;;;;;;;;;;;;6157711;23;19916;-78
2023/02/23 07:01:57;;;;;;;;;;;;;;;;;;6157158;23;19919;-78
2023/02/23 07:04:23;;;;;;;;;;;;;;;;;;6157543;23;19924;-77
2023/02/23 07:06:48;;;;;;;;;;;;;;;;;;6182116;23;19932;-78
2023/02/23 07:09:14;;;;;;;;;;;;;;;;;;6158555;23;20334;-77
2023/02/23 07:11:40;;;;;;;;;;;;;;;;;;6158998;23;19983;-77
2023/02/23 07:14:05;;;;;;;;;;;;;;;;;;6183213;23;19932;-78
2023/02/23 07:16:31;;;;;;;;;;;;;;;;;;6158620;23;20331;-77
2023/02/23 07:18:56;;;;;;;;;;;;;;;;;;6157481;23;19908;-76
2023/02/23 07:21:21;;;;;;;;;;;;;;;;;;6156482;23;20293;-77
2023/02/23 07:23:48;;;;;;;;;;;;;;;;;;6158569;23;19909;-76
2023/02/23 07:26:14;;;;;;;;;;;;;;;;;;6182256;23;20345;-78
2023/02/23 07:28:40;;;;;;;;;;;;;;;;;;6161117;23;19959;-77
2023/02/23 07:31:05;;;;;;;;;;;;;;;;;;6182938;23;19983;-77
2023/02/23 07:33:31;;;;;;;;;;;;;;;;;;6182212;23;19908;-77
2023/02/23 07:35:56;;;;;;;;;;;;;;;;;;6183785;23;19915;-77
2023/02/23 07:38:22;;;;;;;;;;;;;;;;;;6160067;23;20011;-77
2023/02/23 07:40:47;;;;;;;;;;;;;;;;;;6182095;23;19908;-77
2023/02/23 07:43:13;;;;;;;;;;;;;;;;;;6159080;23;19913;-77
2023/02/23 07:45:38;;;;;;;;;;;;;;;;;;6181022;23;19913;-77
2023/02/23 07:48:04;;;;;;;;;;;;;;;;;;6180566;23;19928;-78
2023/02/23 07:50:29;;;;;;;;;;;;;;;;;;6180161;23;19909;-76
2023/02/23 07:52:55;;;;;;;;;;;;;;;;;;6157430;23;19956;-76
2023/02/23 07:55:21;;;;;;;;;;;;;;;;;;6180145;23;19909;-77
2023/02/23 07:57:46;;;;;;;;;;;;;;;;;;6180379;23;19909;-77
2023/02/23 08:00:12;;;;;;;;;;;;;;;;;;6156194;23;19919;-77
2023/02/23 08:02:41;;;;;;;;;;;;;;;;;;6156379;23;19908;-78
2023/02/23 08:05:06;;;;;;;;;;;;;;;;;;6156271;23;20011;-75
2023/02/23 08:07:32;;;;;;;;;;;;;;;;;;6180396;23;19912;-76
2023/02/23 08:09:57;;;;;;;;;;;;;;;;;;6179955;23;19915;-76
2023/02/23 08:12:23;;;;;;;;;;;;;;;;;;6156094;23;19909;-76
2023/02/23 08:14:48;;;;;;;;;;;;;;;;;;6154274;23;19908;-78
2023/02/23 08:17:13;;;;;;;;;;;;;;;;;;6180601;23;19909;-76
2023/02/23 08:19:39;;;;;;;;;;;;;;;;;;6158004;23;20335;-76
2023/02/23 08:22:04;;;;;;;;;;;;;;;;;;6156638;23;20004;-76
2023/02/23 08:24:30;;;;;;;;;;;;;;;;;;6154632;23;19908;-77
2023/02/23 08:26:55;;;;;;;;;;;;;;;;;;6156708;23;20326;-76
2023/02/23 08:29:21;;;;;;;;;;;;;;;;;;6156826;23;20031;-76
2023/02/23 08:31:46;;;;;;;;;;;;;;;;;;6178835;23;20214;-77
2023/02/23 08:34:12;;;;;;;;;;;;;;;;;;6179640;23;19983;-77
2023/02/23 08:36:39;;;;;;;;;;;;;;;;;;6156590;23;19908;-77
2023/02/23 08:39:06;;;;;;;;;;;;;;;;;;6157907;23;19908;-76
2023/02/23 08:41:31;;;;;;;;;;;;;;;;;;6179434;23;19912;-77
2023/02/23 08:43:57;;;;;;;;;;;;;;;;;;6155746;23;19990;-76
2023/02/23 08:46:22;;;;;;;;;;;;;;;;;;6158652;23;20309;-76
2023/02/23 08:48:47;;;;;;;;;;;;;;;;;;6159889;23;19909;-77
2023/02/23 08:51:13;;;;;;;;;;;;;;;;;;6156327;23;20339;-77
2023/02/23 08:53:38;;;;;;;;;;;;;;;;;;6155466;23;19913;-78
2023/02/23 08:56:04;;;;;;;;;;;;;;;;;;6154241;23;19915;-78
2023/02/23 08:58:30;;;;;;;;;;;;;;;;;;6154246;23;19913;-76
2023/02/23 09:00:55;;;;;;;;;;;;;;;;;;6155618;23;20250;-76
2023/02/23 09:03:21;;;;;;;;;;;;;;;;;;6156499;23;19908;-75
2023/02/23 09:05:46;;;;;;;;;;;;;;;;;;6156268;23;20303;-75
2023/02/23 09:08:11;;;;;;;;;;;;;;;;;;6154464;23;19913;-77
2023/02/23 09:10:37;;;;;;;;;;;;;;;;;;6155482;23;19915;-77
2023/02/23 09:13:02;;;;;;;;;;;;;;;;;;6155809;23;19940;-76
2023/02/23 09:15:28;;;;;;;;;;;;;;;;;;6156141;23;19915;-76
2023/02/23 09:17:53;;;;;;;;;;;;;;;;;;6155165;23;19943;-76
2023/02/23 09:20:18;;;;;;;;;;;;;;;;;;6179588;23;19991;-76
2023/02/23 09:22:47;;;;;;;;;;;;;;;;;;6155915;23;19908;-76
2023/02/23 09:25:13;;;;;;;;;;;;;;;;;;6178795;23;19928;-77
2023/02/23 09:27:38;;;;;;;;;;;;;;;;;;6156984;23;19909;-76
2023/02/23 09:30:04;;;;;;;;;;;;;;;;;;6178935;23;19955;-77
2023/02/23 09:32:29;;;;;;;;;;;;;;;;;;6178210;23;19956;-77
2023/02/23 09:34:54;;;;;;;;;;;;;;;;;;6154738;23;19913;-76
2023/02/23 09:37:20;;;;;;;;;;;;;;;;;;6154937;23;19932;-76
2023/02/23 09:39:47;;;;;;;;;;;;;;;;;;6155222;23;19924;-77
2023/02/23 09:42:12;;;;;;;;;;;;;;;;;;6153343;23;19924;-76
2023/02/23 09:44:38;;;;;;;;;;;;;;;;;;6155156;23;19912;-76
2023/02/23 09:47:04;;;;;;;;;;;;;;;;;;6178749;23;20257;-76
2023/02/23 09:49:29;;;;;;;;;;;;;;;;;;6155344;23;19908;-76
2023/02/23 09:51:56;;;;;;;;;;;;;;;;;;6178833;23;19995;-77
2023/02/23 09:54:23;;;;;;;;;;;;;;;;;;6153922;23;19956;-77
2023/02/23 09:56:48;;;;;;;;;;;;;;;;;;6155667;23;20345;-77
2023/02/23 09:59:14;;;;;;;;;;;;;;;;;;6156987;23;19909;-76
2023/02/23 10:01:39;;;;;;;;;;;;;;;;;;6155824;23;19963;-76
2023/02/23 10:04:05;;;;;;;;;;;;;;;;;;6160686;23;19909;-77
2023/02/23 10:06:30;;;;;;;;;;;;;;;;;;6198672;23;19920;-77
2023/02/23 10:08:56;;;;;;;;;;;;;;;;;;6200715;23;19896;-77
2023/02/23 10:11:21;;;;;;;;;;;;;;;;;;6200023;23;19909;-77
2023/02/23 10:13:46;;;;;;;;;;;;;;;;;;6198679;23;19912;-77
2023/02/23 10:16:12;;;;;;;;;;;;;;;;;;6201095;23;19913;-77
2023/02/23 10:18:37;;;;;;;;;;;;;;;;;;6202713;23;19896;-77
2023/02/23 10:21:03;;;;;;;;;;;;;;;;;;6179946;23;19924;-77
2023/02/23 10:23:28;;;;;;;;;;;;;;;;;;6170991;23;20307;-77
2023/02/23 10:25:54;;;;;;;;;;;;;;;;;;6156180;23;20350;-76
2023/02/23 10:28:20;;;;;;;;;;;;;;;;;;6154301;23;19909;-77
2023/02/23 10:30:46;;;;;;;;;;;;;;;;;;6179425;23;20389;-77
2023/02/23 10:33:11;;;;;;;;;;;;;;;;;;6156146;23;19905;-77
2023/02/23 10:35:36;;;;;;;;;;;;;;;;;;6155463;23;19947;-77
2023/02/23 10:38:02;;;;;;;;;;;;;;;;;;6155014;23;19917;-77
2023/02/23 10:40:27;;;;;;;;;;;;;;;;;;6177984;23;19995;-77
2023/02/23 10:42:53;;;;;;;;;;;;;;;;;;6177849;23;19924;-77
2023/02/23 10:45:21;;;;;;;;;;;;;;;;;;6152642;23;20362;-77
2023/02/23 10:47:47;;;;;;;;;;;;;;;;;;6154549;23;19936;-77
2023/02/23 10:50:12;;;;;;;;;;;;;;;;;;6177568;23;19912;-75
2023/02/23 10:52:38;;;;;;;;;;;;;;;;;;6152529;23;20235;-77
2023/02/23 10:55:03;;;;;;;;;;;;;;;;;;6152560;23;19908;-77
2023/02/23 10:57:28;;;;;;;;;;;;;;;;;;6153959;23;19908;-76
2023/02/23 10:59:54;;;;;;;;;;;;;;;;;;6177512;23;19913;-77
2023/02/23 11:02:20;;;;;;;;;;;;;;;;;;6154074;23;19913;-77
2023/02/23 11:04:45;;;;;;;;;;;;;;;;;;6154306;23;19909;-77
2023/02/23 11:07:11;;;;;;;;;;;;;;;;;;6154553;23;19912;-77
2023/02/23 11:09:36;;;;;;;;;;;;;;;;;;6154206;23;20353;-77
2023/02/23 11:12:01;;;;;;;;;;;;;;;;;;6177687;23;19908;-77
2023/02/23 11:14:27;;;;;;;;;;;;;;;;;;6154139;23;20279;-77
2023/02/23 11:16:52;;;;;;;;;;;;;;;;;;6177156;23;19912;-78
2023/02/23 11:19:17;;;;;;;;;;;;;;;;;;6177447;23;20331;-77
2023/02/23 11:21:43;;;;;;;;;;;;;;;;;;6153957;23;19991;-77
2023/02/23 11:24:09;;;;;;;;;;;;;;;;;;6154092;23;19909;-77
2023/02/23 11:26:34;;;;;;;;;;;;;;;;;;6177348;23;20413;-76
2023/02/23 11:28:59;;;;;;;;;;;;;;;;;;6177358;23;19915;-77
2023/02/23 11:31:25;;;;;;;;;;;;;;;;;;6153813;23;19908;-77
2023/02/23 11:33:50;;;;;;;;;;;;;;;;;;6152263;23;19904;-77
2023/02/23 11:36:16;;;;;;;;;;;;;;;;;;6153582;23;20316;-77
2023/02/23 11:38:41;;;;;;;;;;;;;;;;;;6153870;23;19935;-77
2023/02/23 11:41:10;;;;;;;;;;;;;;;;;;6153585;23;19913;-77
2023/02/23 11:43:35;;;;;;;;;;;;;;;;;;6156107;23;19920;-80
2023/02/23 11:46:00;;;;;;;;;;;;;;;;;;6156095;23;20072;-79
2023/02/23 11:48:26;;;;;;;;;;;;;;;;;;6156201;23;19915;-81
2023/02/23 11:50:51;;;;;;;;;;;;;;;;;;6157693;23;19909;-78
2023/02/23 11:53:18;;;;;;;;;;;;;;;;;;6156776;23;20247;-78
2023/02/23 11:55:43;;;;;;;;;;;;;;;;;;6154143;23;19983;-78
2023/02/23 11:58:08;;;;;;;;;;;;;;;;;;6156109;23;20397;-77
2023/02/23 12:00:34;;;;;;;;;;;;;;;;;;6154647;23;19912;-78
2023/02/23 12:02:59;;;;;;;;;;;;;;;;;;6129947;23;19909;-78
2023/02/23 12:05:24;;;;;;;;;;;;;;;;;;6155567;23;20334;-79
2023/02/23 12:07:50;;;;;;;;;;;;;;;;;;6155705;23;19908;-79
2023/02/23 12:10:15;;;;;;;;;;;;;;;;;;6155668;23;20330;-79
2023/02/23 12:12:40;;;;;;;;;;;;;;;;;;6155689;23;19909;-80
2023/02/23 12:15:08;;;;;;;;;;;;;;;;;;6155671;23;20309;-78
2023/02/23 12:17:33;;;;;;;;;;;;;;;;;;6155908;23;19912;-78
2023/02/23 12:19:59;;;;;;;;;;;;;;;;;;6155637;23;19908;-78
2023/02/23 12:22:25;;;;;;;;;;;;;;;;;;6155485;23;19966;-79
2023/02/23 12:24:50;;;;;;;;;;;;;;;;;;6153905;23;19909;-79
2023/02/23 12:27:16;;;;;;;;;;;;;;;;;;6155621;23;19915;-79
2023/02/23 12:29:41;;;;;;;;;;;;;;;;;;6155237;23;19915;-79
2023/02/23 12:32:07;;;;;;;;;;;;;;;;;;6155071;23;20401;-79
2023/02/23 12:34:32;;;;;;;;;;;;;;;;;;6155294;23;20251;-78
2023/02/23 12:36:57;;;;;;;;;;;;;;;;;;6155550;23;19908;-79
2023/02/23 12:39:23;;;;;;;;;;;;;;;;;;6153763;23;19909;-79
2023/02/23 12:41:48;;;;;;;;;;;;;;;;;;6155031;23;19956;-78
2023/02/23 12:44:14;;;;;;;;;;;;;;;;;;6153632;23;19967;-78
2023/02/23 12:46:46;;;;;;;;;;;;;;;;;;6154953;23;19912;-78
2023/02/23 12:49:12;;;;;;;;;;;;;;;;;;6155648;23;19916;-78
2023/02/23 12:51:38;;;;;;;;;;;;;;;;;;6155046;23;19909;-78
2023/02/23 12:54:04;;;;;;;;;;;;;;;;;;6153782;23;20170;-78
2023/02/23 12:56:32;;;;;;;;;;;;;;;;;;6155021;23;19909;-78
2023/02/23 12:58:57;;;;;;;;;;;;;;;;;;6153626;23;19908;-78
2023/02/23 13:01:24;;;;;;;;;;;;;;;;;;6155302;23;20253;-78
2023/02/23 13:03:49;;;;;;;;;;;;;;;;;;6154838;23;19908;-78
2023/02/23 13:06:15;;;;;;;;;;;;;;;;;;6153388;23;19986;-77
2023/02/23 13:08:40;;;;;;;;;;;;;;;;;;6158007;23;19916;-77
2023/02/23 13:11:05;;;;;;;;;;;;;;;;;;6155089;23;20255;-79
2023/02/23 13:13:31;;;;;;;;;;;;;;;;;;6155171;23;19923;-77
2023/02/23 13:15:56;;;;;;;;;;;;;;;;;;6154666;23;19983;-78
2023/02/23 13:18:22;;;;;;;;;;;;;;;;;;6128822;23;19915;-78
2023/02/23 13:20:47;;;;;;;;;;;;;;;;;;6154642;23;20050;-78
2023/02/23 13:23:13;;;;;;;;;;;;;;;;;;6154680;23;19959;-79
2023/02/23 13:25:38;;;;;;;;;;;;;;;;;;6155205;23;19909;-78
2023/02/23 13:28:04;;;;;;;;;;;;;;;;;;6155139;23;19985;-79
2023/02/23 13:30:31;;;;;;;;;;;;;;;;;;6153521;23;20322;-78
2023/02/23 13:32:57;;;;;;;;;;;;;;;;;;6154930;23;19912;-77
2023/02/23 13:35:22;;;;;;;;;;;;;;;;;;6153073;23;19910;-77
2023/02/23 13:37:47;;;;;;;;;;;;;;;;;;6129426;23;19912;-78
2023/02/23 13:40:13;;;;;;;;;;;;;;;;;;6153382;23;19908;-78
2023/02/23 13:42:38;;;;;;;;;;;;;;;;;;6156207;23;19917;-80
2023/02/23 13:45:05;;;;;;;;;;;;;;;;;;6162468;23;19915;-78
2023/02/23 13:47:30;;;;;;;;;;;;;;;;;;6141224;23;19909;-79
2023/02/23 13:49:56;;;;;;;;;;;;;;;;;;6166907;23;19920;-78
2023/02/23 13:52:22;;;;;;;;;;;;;;;;;;6136875;23;19932;-78
2023/02/23 13:54:47;;;;;;;;;;;;;;;;;;6161611;23;20268;-78
2023/02/23 13:57:15;;;;;;;;;;;;;;;;;;6159925;23;19909;-78
2023/02/23 13:59:41;;;;;;;;;;;;;;;;;;6157555;23;19909;-77
2023/02/23 14:02:06;;;;;;;;;;;;;;;;;;6153602;23;19920;-79
2023/02/23 14:04:31;;;;;;;;;;;;;;;;;;6128901;23;20374;-79
2023/02/23 14:06:57;;;;;;;;;;;;;;;;;;6154885;23;19909;-78
2023/02/23 14:09:22;;;;;;;;;;;;;;;;;;6155157;23;20515;-78
2023/02/23 14:11:48;;;;;;;;;;;;;;;;;;6153451;23;19931;-81
2023/02/23 14:14:15;;;;;;;;;;;;;;;;;;6153079;23;19905;-78
2023/02/23 14:16:41;;;;;;;;;;;;;;;;;;6155020;23;19996;-80
2023/02/23 14:19:06;;;;;;;;;;;;;;;;;;6152846;23;20348;-79
2023/02/23 14:21:32;;;;;;;;;;;;;;;;;;6153267;23;19923;-77
2023/02/23 14:23:57;;;;;;;;;;;;;;;;;;6153549;23;19931;-78
2023/02/23 14:26:23;;;;;;;;;;;;;;;;;;6155301;23;20231;-78
2023/02/23 14:28:49;;;;;;;;;;;;;;;;;;6153711;23;19916;-78
2023/02/23 14:31:19;;;;;;;;;;;;;;;;;;6153265;23;19947;-78
2023/02/23 14:33:44;;;;;;;;;;;;;;;;;;6155091;23;20326;-78
2023/02/23 14:36:10;;;;;;;;;;;;;;;;;;6154850;23;19908;-79
2023/02/23 14:38:37;;;;;;;;;;;;;;;;;;6154249;23;19936;-78
2023/02/23 14:41:03;;;;;;;;;;;;;;;;;;6154964;23;19959;-78
2023/02/23 14:43:28;;;;;;;;;;;;;;;;;;6154627;23;19913;-79
2023/02/23 14:45:53;;;;;;;;;;;;;;;;;;6128325;23;19908;-79
2023/02/23 14:48:22;;;;;;;;;;;;;;;;;;6154883;23;19908;-81
2023/02/23 14:50:47;;;;;;;;;;;;;;;;;;6155606;23;19963;-80
2023/02/23 14:53:13;;;;;;;;;;;;;;;;;;6153581;23;19909;-79
2023/02/23 14:55:38;;;;;;;;;;;;;;;;;;6130418;23;20349;-80
2023/02/23 14:58:03;;;;;;;;;;;;;;;;;;6133590;23;20255;-79
2023/02/23 15:00:31;;;;;;;;;;;;;;;;;;6137531;23;20224;-80
2023/02/23 15:02:57;;;;;;;;;;;;;;;;;;6137779;23;19912;-77
2023/02/23 15:05:22;;;;;;;;;;;;;;;;;;6160925;23;19909;-77
2023/02/23 15:07:50;;;;;;;;;;;;;;;;;;6160720;23;19909;-79
2023/02/23 15:10:16;;;;;;;;;;;;;;;;;;6159341;23;19919;-78
2023/02/23 15:12:41;;;;;;;;;;;;;;;;;;6157146;23;19905;-77
2023/02/23 15:15:08;;;;;;;;;;;;;;;;;;6156823;23;19959;-78
2023/02/23 15:17:34;;;;;;;;;;;;;;;;;;6153660;23;19928;-77
2023/02/23 15:20:00;;;;;;;;;;;;;;;;;;6153273;23;20262;-77
2023/02/23 15:22:25;;;;;;;;;;;;;;;;;;6154428;23;19912;-77
2023/02/23 15:24:51;;;;;;;;;;;;;;;;;;6153492;23;19913;-78
2023/02/23 15:27:16;;;;;;;;;;;;;;;;;;6155849;23;19908;-79
2023/02/23 15:29:41;;;;;;;;;;;;;;;;;;6154402;23;19908;-78
2023/02/23 15:32:07;;;;;;;;;;;;;;;;;;6155381;23;20289;-79
2023/02/23 15:34:32;;;;;;;;;;;;;;;;;;6156056;23;19988;-78
2023/02/23 15:36:58;;;;;;;;;;;;;;;;;;6129620;23;19909;-77
2023/02/23 15:39:23;;;;;;;;;;;;;;;;;;6154300;23;19909;-77
2023/02/23 15:41:49;;;;;;;;;;;;;;;;;;6129582;23;19940;-77
2023/02/23 15:44:14;;;;;;;;;;;;;;;;;;6153920;23;19912;-79
2023/02/23 15:46:40;;;;;;;;;;;;;;;;;;6155560;23;19909;-79
2023/02/23 15:49:06;;;;;;;;;;;;;;;;;;6154491;23;20374;-77
2023/02/23 15:51:31;;;;;;;;;;;;;;;;;;6155931;23;19909;-78
2023/02/23 15:53:56;;;;;;;;;;;;;;;;;;6154358;23;19909;-78
2023/02/23 15:56:22;;;;;;;;;;;;;;;;;;6129387;23;19924;-78
2023/02/23 15:58:47;;;;;;;;;;;;;;;;;;6154518;23;20291;-79
2023/02/23 16:01:12;;;;;;;;;;;;;;;;;;6155657;23;20001;-77
2023/02/23 16:03:42;;;;;;;;;;;;;;;;;;6129837;23;19940;-78
2023/02/23 16:06:08;;;;;;;;;;;;;;;;;;6154124;23;19961;-78
2023/02/23 16:08:33;;;;;;;;;;;;;;;;;;6154103;23;19912;-77
2023/02/23 16:10:59;;;;;;;;;;;;;;;;;;6153861;23;19948;-79
2023/02/23 16:13:26;;;;;;;;;;;;;;;;;;6155019;23;19909;-79
2023/02/23 16:15:51;;;;;;;;;;;;;;;;;;6155028;23;20350;-77
2023/02/23 16:18:16;;;;;;;;;;;;;;;;;;6155655;23;19935;-77
2023/02/23 16:20:42;;;;;;;;;;;;;;;;;;6153539;23;20326;-79
2023/02/23 16:23:07;;;;;;;;;;;;;;;;;;6153816;23;19947;-77
2023/02/23 16:25:32;;;;;;;;;;;;;;;;;;6129255;23;19909;-79
2023/02/23 16:27:58;;;;;;;;;;;;;;;;;;6153729;23;19908;-79
2023/02/23 16:30:23;;;;;;;;;;;;;;;;;;6154816;23;20204;-78
2023/02/23 16:32:49;;;;;;;;;;;;;;;;;;6128399;23;19915;-78
2023/02/23 16:35:14;;;;;;;;;;;;;;;;;;6155232;23;19959;-77
2023/02/23 16:37:40;;;;;;;;;;;;;;;;;;6153330;23;19909;-77
2023/02/23 16:40:05;;;;;;;;;;;;;;;;;;6155201;23;19912;-77
2023/02/23 16:42:30;;;;;;;;;;;;;;;;;;6153390;23;19919;-77
2023/02/23 16:44:56;;;;;;;;;;;;;;;;;;6155129;23;19909;-77
2023/02/23 16:47:21;;;;;;;;;;;;;;;;;;6153268;23;20246;-78
2023/02/23 16:49:47;;;;;;;;;;;;;;;;;;6154998;23;19909;-78
2023/02/23 16:52:12;;;;;;;;;;;;;;;;;;6152729;23;19940;-79
2023/02/23 16:54:38;;;;;;;;;;;;;;;;;;6152633;23;19916;-80
2023/02/23 16:57:06;;;;;;;;;;;;;;;;;;6154796;23;19913;-79
2023/02/23 16:59:33;;;;;;;;;;;;;;;;;;6128437;23;19909;-79
2023/02/23 17:01:58;;;;;;;;;;;;;;;;;;6152893;23;19912;-79
2023/02/23 17:04:23;;;;;;;;;;;;;;;;;;6153423;23;19916;-78
2023/02/23 17:06:56;;;;;;;;;;;;;;;;;;6155836;23;20338;-79
2023/02/23 17:09:23;;;;;;;;;;;;;;;;;;6156456;23;19908;-79
2023/02/23 17:11:48;;;;;;;;;;;;;;;;;;6157154;23;19984;-78
2023/02/23 17:14:13;;;;;;;;;;;;;;;;;;6158114;23;20101;-79
2023/02/23 17:16:39;;;;;;;;;;;;;;;;;;6158083;23;19912;-79
2023/02/23 17:19:05;;;;;;;;;;;;;;;;;;6168828;23;19915;-79
2023/02/23 17:21:32;;;;;;;;;;;;;;;;;;6168830;23;19962;-78
2023/02/23 17:24:01;;;;;;;;;;;;;;;;;;6168523;23;19905;-78
2023/02/23 17:26:26;;;;;;;;;;;;;;;;;;6167414;23;20044;-78
2023/02/23 17:28:52;;;;;;;;;;;;;;;;;;6155359;23;20318;-78
2023/02/23 17:31:18;;;;;;;;;;;;;;;;;;6104338;23;19936;-79
2023/02/23 17:33:43;;;;;;;;;;;;;;;;;;6153272;23;19916;-79
2023/02/23 17:36:09;;;;;;;;;;;;;;;;;;6154898;23;19988;-79
2023/02/23 17:38:34;;;;;;;;;;;;;;;;;;6155161;23;19931;-79
2023/02/23 17:41:00;;;;;;;;;;;;;;;;;;6153395;23;19916;-77
2023/02/23 17:43:25;;;;;;;;;;;;;;;;;;6155294;23;19935;-78
2023/02/23 17:45:50;;;;;;;;;;;;;;;;;;6153537;23;20326;-79
2023/02/23 17:48:16;;;;;;;;;;;;;;;;;;6155278;23;19947;-78
2023/02/23 17:50:42;;;;;;;;;;;;;;;;;;6153391;23;19913;-77
2023/02/23 17:53:07;;;;;;;;;;;;;;;;;;6154737;23;19909;-77
2023/02/23 17:55:36;;;;;;;;;;;;;;;;;;6153122;23;20200;-79